• Join FlightAware (Why Join?)
  • Login
  • US Flag 
03:35AM EDT


 

Airport Tracker/Info


-or-


 

Live Flight TrackerFlight Track Log ✈ DAL3799 ✈ 18-Apr-2013 ✈ KDTW - CYOW

Flight Track Log - Related Links

Times and Time Zones

All times are in EDT time to prevent confusion due to time zone crossing. See the DAL3799 flight status page for this flight to view local times or setup timezone preferences in your user account.

Time Position Orientation Groundspeed Altitude Reporting Facility
EDT Latitude Longitude Course Direction KTS MPH feet Rate Location/Type
10:37PM 42.2036 -83.3556 71° East 146 168 1,500  Level Cleveland Center
10:38PM 42.1436 -83.3417 170° South 230 265 4,000 1,980 Climbing Cleveland Center
10:38PM 42.1342 -83.2992 107° East 271 312 4,800 2,160 Climbing Cleveland Center
10:39PM 42.1700 -83.1914 66° East 303 349 7,200 2,400 Climbing Cleveland Center
10:40PM 42.6900 -83.1897 12° North  Level FlightAware Approximate
10:40PM 42.2203 -83.0897 56° Northeast 341 392 9,700  Level Cleveland Center
10:41PM 42.8139 -83.1478 16° North  Level FlightAware Approximate
10:41PM 42.3081 -83.0764 North 337 388 11,700  Level Cleveland Center
10:42PM 42.9018 -83.0599 71° East  Level FlightAware Approximate
10:42PM 42.4100 -83.0889 355° North 352 405 13,000  Level Cleveland Center
10:43PM 42.5244 -83.0992 356° North 379 436 14,100 1,440 Climbing Cleveland Center
10:44PM 42.6408 -83.1122 355° North 407 468 15,900 1,680 Climbing Cleveland Center
10:45PM 42.7469 -83.1222 356° North 420 483 17,500 1,560 Climbing Cleveland Center
10:46PM 42.8597 -83.1069 North 420 483 19,100 1,260 Climbing Cleveland Center
10:47PM 42.9231 -82.9789 56° Northeast 368 423 20,100 840 Climbing Cleveland Center
10:48PM 42.9617 -82.8103 73° East 372 428 20,800 660 Climbing Cleveland Center
10:49PM 42.9981 -82.6469 73° East 406 467 21,500 720 Climbing Cleveland Center
10:50PM 43.0167 -82.5000 80° East 450 518 22,200 720 Climbing Toronto Center
10:51PM 43.0500 -82.3333 75° East 460 529 22,800 600 Climbing Toronto Center
10:52PM 43.0833 -82.1667 75° East 460 529 23,500 600 Climbing Toronto Center
10:53PM 43.1167 -81.9833 76° East 460 529 24,100 480 Climbing Toronto Center
10:54PM 43.1667 -81.8333 65° Northeast 470 541 24,500 420 Climbing Toronto Center
10:55PM 43.2000 -81.6500 76° East 470 541 25,000 240 Climbing Toronto Center
10:56PM 43.2333 -81.4667 76° East 470 541 25,000  Level Toronto Center
10:57PM 43.2667 -81.3000 75° East 470 541 25,000  Level Toronto Center
10:58PM 43.3000 -81.1167 76° East 480 552 25,000  Level Toronto Center
10:59PM 43.3333 -80.9333 76° East 480 552 25,000  Level Toronto Center
11:00PM 43.3667 -80.7833 73° East 480 552 25,000  Level Toronto Center
11:01PM 43.4167 -80.6000 69° East 480 552 25,000  Level Toronto Center
11:02PM 43.4333 -80.4167 83° East 490 564 25,000  Level Toronto Center
11:03PM 43.4833 -80.2333 69° East 490 564 25,000  Level Toronto Center
11:04PM 43.5333 -80.0667 67° East 490 564 25,000  Level Toronto Center
11:05PM 43.5667 -79.8833 76° East 490 564 25,000  Level Toronto Center
11:06PM 43.6167 -79.7333 65° Northeast 490 564 25,000  Level Toronto Center
11:07PM 43.6667 -79.5167 72° East 490 564 25,000  Level Toronto Center
11:08PM 43.7333 -79.3500 61° Northeast 480 552 25,000  Level Toronto Center
11:09PM 43.7667 -79.2000 73° East 480 552 25,000  Level Toronto Center
11:10PM 43.8167 -79.0167 69° East 480 552 25,000  Level Toronto Center
11:11PM 43.8833 -78.8167 65° Northeast 480 552 25,000  Level Toronto Center
11:12PM 43.9333 -78.6667 65° Northeast 490 564 25,000  Level Toronto Center
11:13PM 43.9667 -78.5000 74° East 490 564 25,000  Level Toronto Center
11:14PM 44.0167 -78.3167 69° East 490 564 25,000  Level Toronto Center
11:15PM 44.0833 -78.1500 61° Northeast 490 564 25,000  Level Toronto Center
11:16PM 44.1500 -77.9833 61° Northeast 500 575 25,000  Level Toronto Center
11:17PM 44.2333 -77.8167 55° Northeast 500 575 25,000  Level Toronto Center
11:18PM 44.3167 -77.6500 55° Northeast 500 575 25,000 -240 Level Toronto Center
11:19PM 44.3833 -77.4833 61° Northeast 510 587 24,600 -720 Descending Toronto Center
11:20PM 44.4500 -77.3667 51° Northeast 510 587 23,700 -1,080 Descending Montreal Center
11:21PM 44.5333 -77.2167 52° Northeast 510 587 22,700 -960 Descending Montreal Center
11:22PM 44.6000 -77.0500 61° Northeast 500 575 21,800 -1,080 Descending Montreal Center
11:23PM 44.6833 -76.8833 55° Northeast 500 575 20,600 -1,380 Descending Montreal Center
11:24PM 44.7500 -76.7167 61° Northeast 490 564 19,100 -1,620 Descending Montreal Center
11:25PM 44.8333 -76.5833 49° Northeast 480 552 17,400 -1,500 Descending Montreal Center
11:26PM 44.9000 -76.4167 61° Northeast 470 541 16,200 -1,320 Descending Montreal Center
11:27PM 44.9667 -76.2500 60° Northeast 460 529 14,800 -1,500 Descending Montreal Center
11:28PM 45.0333 -76.1167 55° Northeast 460 529 13,300 -1,560 Descending Montreal Center
11:29PM 45.0833 -75.9667 65° Northeast 400 460 11,700 -1,620 Descending Montreal Center
11:30PM 45.1333 -75.8500 59° Northeast 360 414 10,100 -1,620 Descending Montreal Center
11:31PM 45.1833 -75.7333 59° Northeast 340 391 8,500 -1,740 Descending Montreal Center
11:32PM 45.2333 -75.6167 59° Northeast 340 391 6,700 -1,800 Descending Montreal Center
11:33PM 45.2833 -75.5000 59° Northeast 330 380 4,900 -1,500 Descending Montreal Center
11:34PM 45.3333 -75.4000 55° Northeast 310 357 3,800 -900 Descending Montreal Center
11:35PM 45.3833 -75.4000 360° North 220 253 3,100 -600 Descending Montreal Center
11:36PM 45.3833 -75.4500 270° West 160 184 2,600 -600 Descending Montreal Center
11:37PM 45.3667 -75.5167 250° West 150 173 2,000 -600 Descending Montreal Center